Time;durP1;ratioP1;P1;durP2;ratioP2;P2;SDS_P1;SDS_P2;PMS_P1;PMS_P2;Temp;Humidity;BMP_temperature;BMP_pressure;BME280_temperature;BME280_humidity;BME280_pressure;Samples;Min_cycle;Max_cycle;Signal;HPM_P1;HPM_P2
2021/12/07 00:00:21;;;;;;;7.50;4.20;;;;;;;1.64;80.09;98049.27;102195;1319;76132;-23
2021/12/07 00:02:50;;;;;;;3.20;2.20;;;;;;;1.55;80.07;98053.02;102209;1319;74473;-23
2021/12/07 00:05:19;;;;;;;6.40;2.90;;;;;;;1.37;80.41;98044.20;102277;1312;61176;-23
2021/12/07 00:07:47;;;;;;;4.60;2.90;;;;;;;1.08;80.96;98044.17;102244;1319;61037;-23
2021/12/07 00:10:16;;;;;;;4.70;3.40;;;;;;;0.82;82.15;98043.66;101962;1315;74539;-23
2021/12/07 00:12:47;;;;;;;3.50;2.00;;;;;;;0.66;82.98;98040.25;102123;1312;75043;-22
2021/12/07 00:15:17;;;;;;;4.90;2.70;;;;;;;1.05;81.85;98040.08;102092;1312;74393;-23
2021/12/07 00:17:52;;;;;;;7.20;4.70;;;;;;;1.48;80.55;98040.62;102080;1319;61202;-23
2021/12/07 00:20:21;;;;;;;6.90;3.60;;;;;;;1.55;80.50;98039.05;101956;1320;61191;-23
2021/12/07 00:22:53;;;;;;;4.60;3.00;;;;;;;1.38;80.45;98035.76;101972;1319;75803;-23
2021/12/07 00:25:23;;;;;;;4.70;3.20;;;;;;;1.11;80.98;98044.90;101905;1320;76062;-23
2021/12/07 00:27:51;;;;;;;6.60;3.90;;;;;;;0.85;82.13;98048.40;102194;1318;74623;-23
2021/12/07 00:30:20;;;;;;;7.90;4.70;;;;;;;0.66;82.82;98044.52;102225;1319;62067;-23
2021/12/07 00:33:06;;;;;;;3.20;2.10;;;;;;;0.48;83.88;98041.80;102305;1313;62090;-22
2021/12/07 00:35:35;;;;;;;6.70;3.90;;;;;;;1.07;82.60;98039.98;102283;1319;75482;-23
2021/12/07 00:38:16;;;;;;;4.80;3.00;;;;;;;1.51;80.83;98044.39;102180;1320;74473;-24
2021/12/07 00:40:45;;;;;;;7.30;3.20;;;;;;;1.55;80.30;98047.58;101988;1315;74201;-22
2021/12/07 00:43:14;;;;;;;6.80;3.70;;;;;;;1.36;80.52;98056.39;101788;1319;61551;-22
2021/12/07 00:45:45;;;;;;;6.50;3.20;;;;;;;0.98;81.37;98062.05;101681;1316;61183;-22
2021/12/07 00:48:14;;;;;;;4.00;2.50;;;;;;;0.49;83.48;98056.59;102054;1319;75696;-22
2021/12/07 00:50:45;;;;;;;3.40;2.00;;;;;;;0.22;84.98;98052.77;101769;1316;75943;-23
2021/12/07 00:53:15;;;;;;;4.70;2.50;;;;;;;0.69;84.32;98048.83;101629;1313;73558;-22
2021/12/07 00:55:48;;;;;;;4.20;2.70;;;;;;;1.23;81.91;98046.22;102156;1316;61236;-22
2021/12/07 00:58:20;;;;;;;4.80;3.00;;;;;;;1.03;82.05;98049.10;102046;1317;61396;-22
2021/12/07 01:01:02;;;;;;;3.30;2.10;;;;;;;0.82;82.62;98048.43;101913;1315;75543;-22
2021/12/07 01:03:31;;;;;;;5.80;2.60;;;;;;;0.47;84.29;98049.03;102151;1316;75896;-22
2021/12/07 01:06:14;;;;;;;5.10;3.10;;;;;;;0.28;84.95;98051.61;102162;1315;74478;-22
2021/12/07 01:25:35;;;;;;;6.10;3.60;;;;;;;0.46;85.15;98055.37;102282;1319;61167;-22
2021/12/07 01:28:13;;;;;;;7.40;3.40;;;;;;;0.81;83.59;98065.23;102294;1316;75762;-22
2021/12/07 01:30:57;;;;;;;4.80;3.10;;;;;;;0.56;84.19;98075.19;102159;1319;75079;-22
2021/12/07 01:36:14;;;;;;;6.40;3.30;;;;;;;0.06;85.73;98067.14;102257;1312;61335;-22
2021/12/07 01:41:41;;;;;;;5.10;3.40;;;;;;;0.61;84.45;98067.38;102280;1313;73555;-22
2021/12/07 01:47:19;;;;;;;6.30;3.20;;;;;;;0.57;84.03;98057.00;102209;1316;74420;-22
2021/12/07 02:00:16;;;;;;;10.40;5.80;;;;;;;0.96;81.75;98068.63;101998;1317;73244;-22
2021/12/07 02:02:46;;;;;;;6.60;2.80;;;;;;;0.62;82.93;98063.88;102118;1313;61232;-22
2021/12/07 02:05:16;;;;;;;5.80;3.00;;;;;;;0.41;84.00;98063.71;102274;1314;61670;-22
2021/12/07 02:07:44;;;;;;;6.10;3.00;;;;;;;0.08;85.06;98062.39;102187;1314;75756;-23
2021/12/07 02:10:18;;;;;;;3.20;2.20;;;;;;;0.28;85.22;98058.26;102317;1312;76093;-22
2021/12/07 02:12:49;;;;;;;5.30;2.60;;;;;;;0.58;83.71;98061.05;102270;1314;74490;-22
2021/12/07 02:15:20;;;;;;;4.50;2.30;;;;;;;0.73;83.46;98065.52;101969;1317;61956;-22
2021/12/07 02:17:49;;;;;;;3.80;2.10;;;;;;;0.35;83.77;98062.81;102137;1320;62053;-22
2021/12/07 02:20:19;;;;;;;4.60;2.90;;;;;;;0.17;84.81;98069.75;102148;1319;74683;-23
2021/12/07 02:22:47;;;;;;;3.60;1.90;;;;;;;-0.01;85.70;98071.41;102049;1314;76284;-22
2021/12/07 02:25:16;;;;;;;5.60;4.00;;;;;;;0.52;84.38;98076.55;102146;1317;73397;-22
2021/12/07 02:27:46;;;;;;;5.80;3.10;;;;;;;0.81;82.79;98077.19;102043;1314;61100;-22
2021/12/07 02:30:17;;;;;;;3.90;2.60;;;;;;;0.77;82.72;98077.23;101780;1319;61145;-22
2021/12/07 02:32:45;;;;;;;5.10;2.90;;;;;;;0.62;83.29;98080.30;101983;1314;74773;-23
2021/12/07 02:35:22;;;;;;;4.30;2.30;;;;;;;0.54;83.20;98077.84;102158;1317;76069;-22
2021/12/07 02:37:53;;;;;;;5.60;3.50;;;;;;;0.33;83.91;98068.23;102141;1319;74507;-22
2021/12/07 02:40:23;;;;;;;7.30;4.20;;;;;;;0.10;85.21;98062.80;101739;1313;61907;-22
2021/12/07 02:42:51;;;;;;;4.80;2.40;;;;;;;0.51;84.05;98064.67;101653;1320;61150;-22
2021/12/07 02:45:21;;;;;;;4.80;3.30;;;;;;;0.61;83.23;98069.92;102042;1313;75647;-23
2021/12/07 02:47:49;;;;;;;3.20;1.90;;;;;;;0.38;83.90;98073.58;101859;1312;75110;-22
2021/12/07 02:50:18;;;;;;;6.30;3.80;;;;;;;0.44;83.55;98072.92;102092;1316;74497;-22
2021/12/07 02:52:46;;;;;;;6.40;3.90;;;;;;;-0.06;85.12;98067.90;101892;1317;61142;-22
2021/12/07 02:55:15;;;;;;;7.80;4.00;;;;;;;0.07;85.36;98075.92;101876;1314;348504;-23
2021/12/07 02:57:45;;;;;;;5.30;2.90;;;;;;;0.43;83.90;98083.04;102098;1314;75573;-23
2021/12/07 03:00:19;;;;;;;7.70;5.10;;;;;;;0.40;84.08;98086.31;102161;1314;76183;-23
2021/12/07 03:02:56;;;;;;;3.20;2.10;;;;;;;0.12;84.61;98075.52;101769;1317;72998;-23
2021/12/07 03:05:46;;;;;;;3.40;1.90;;;;;;;-0.04;85.18;98077.58;102117;1317;61176;-23
2021/12/07 03:27:59;;;;;;;4.90;3.30;;;;;;;0.57;83.28;98104.48;102162;1317;75169;-23
2021/12/07 03:30:28;;;;;;;3.40;2.30;;;;;;;0.31;83.81;98094.80;102297;1316;73423;-23
2021/12/07 03:32:59;;;;;;;3.30;2.20;;;;;;;-0.12;85.47;98089.59;102281;1317;61141;-23
2021/12/07 03:35:28;;;;;;;7.00;4.70;;;;;;;-0.28;86.45;98089.91;102141;1314;61371;-23
2021/12/07 03:37:56;;;;;;;5.20;2.70;;;;;;;-0.02;85.78;98086.67;101903;1314;74611;-23
2021/12/07 03:40:25;;;;;;;6.90;4.80;;;;;;;0.25;84.58;98094.09;102124;1312;75237;-23
2021/12/07 03:42:54;;;;;;;4.50;2.20;;;;;;;0.23;84.53;98099.86;102143;1313;73511;-23
2021/12/07 03:45:24;;;;;;;5.20;3.10;;;;;;;0.21;84.75;98100.78;101980;1314;61094;-23
2021/12/07 03:47:53;;;;;;;4.00;3.00;;;;;;;-0.04;85.18;98101.29;102264;1313;62104;-23
2021/12/07 03:50:22;;;;;;;4.10;2.60;;;;;;;-0.09;86.11;98099.80;102283;1313;73898;-23
2021/12/07 03:52:51;;;;;;;5.60;3.30;;;;;;;0.47;83.96;98100.92;102307;1313;76167;-23
2021/12/07 03:55:20;;;;;;;4.80;3.30;;;;;;;0.36;83.85;98096.94;101916;1314;73446;-24
2021/12/07 03:57:48;;;;;;;7.10;4.00;;;;;;;0.12;84.35;98099.93;101966;1317;61096;-23
2021/12/07 04:00:19;;;;;;;6.40;3.40;;;;;;;-0.23;85.78;98100.06;102159;1314;61851;-24
2021/12/07 04:02:51;;;;;;;7.20;3.70;;;;;;;-0.43;87.29;98103.48;101730;1317;75644;-24
2021/12/07 04:05:22;;;;;;;4.20;2.70;;;;;;;-0.04;85.83;98102.80;101700;1315;76168;-23
2021/12/07 04:07:52;;;;;;;6.30;3.10;;;;;;;0.18;84.63;98102.16;101880;1313;70213;-23
2021/12/07 04:10:22;;;;;;;4.40;3.00;;;;;;;0.18;84.41;98107.98;102159;1313;61954;-23
2021/12/07 04:12:50;;;;;;;5.30;3.40;;;;;;;0.01;84.60;98114.02;101870;1315;62538;-24
2021/12/07 04:15:19;;;;;;;4.10;2.60;;;;;;;-0.34;85.93;98111.38;102130;1313;75479;-23
2021/12/07 04:17:47;;;;;;;8.00;4.70;;;;;;;-0.16;86.02;98111.77;102116;1312;76150;-23
2021/12/07 04:20:16;;;;;;;6.30;3.20;;;;;;;-0.03;84.86;98111.82;102279;1313;74388;-23
2021/12/07 04:22:45;;;;;;;8.10;5.00;;;;;;;-0.16;85.14;98112.96;101918;1316;62010;-23
2021/12/07 04:25:14;;;;;;;9.10;5.40;;;;;;;-0.45;86.62;98109.70;102275;1313;61212;-24
2021/12/07 04:27:43;;;;;;;7.30;4.60;;;;;;;-0.43;86.72;98112.19;102146;1314;73501;-23
2021/12/07 04:30:14;;;;;;;4.60;2.90;;;;;;;-0.11;85.26;98121.08;102061;1314;75167;-23
2021/12/07 04:32:42;;;;;;;5.20;3.30;;;;;;;-0.07;84.90;98127.06;101960;1312;74446;-23
2021/12/07 04:35:11;;;;;;;8.20;4.50;;;;;;;-0.03;85.20;98125.98;101915;1313;61221;-23
2021/12/07 04:37:40;;;;;;;9.80;5.30;;;;;;;-0.12;85.33;98127.64;102138;1316;62082;-24
2021/12/07 04:40:11;;;;;;;8.10;5.20;;;;;;;-0.50;86.74;98131.77;102056;1313;74256;-23
2021/12/07 04:42:39;;;;;;;14.20;6.90;;;;;;;-0.20;85.89;98138.94;101840;1315;73303;-23
2021/12/07 04:45:12;;;;;;;9.10;5.70;;;;;;;0.02;84.80;98147.02;102001;1313;74203;-23
2021/12/07 04:57:37;;;;;;;6.10;3.70;;;;;;;-0.17;85.79;98164.55;101836;1313;75571;-23
2021/12/07 04:59:23;;;;;;;7.40;4.60;;;;;;;0.26;83.43;98180.63;102120;1313;74176;-24
2021/12/07 05:01:52;;;;;;;8.60;6.10;;;;;;;-0.07;84.43;98181.09;102083;1317;61222;-25
2021/12/07 05:04:25;;;;;;;12.40;6.80;;;;;;;-0.28;85.34;98172.62;102218;1317;61237;-24
2021/12/07 05:07:01;;;;;;;12.50;8.30;;;;;;;-0.32;85.70;98167.05;102249;1312;73541;-26
2021/12/07 05:09:42;;;;;;;8.40;4.20;;;;;;;0.10;84.62;98165.08;102198;1313;75936;-23
2021/12/07 05:14:42;;;;;;;9.80;6.10;;;;;;;0.10;83.98;98169.45;101723;1313;61216;-23
2021/12/07 05:38:56;;;;;;;10.70;5.30;;;;;;;0.14;83.64;98174.39;102172;1314;72322;-23
2021/12/07 05:41:24;;;;;;;11.10;7.50;;;;;;;0.01;84.30;98172.02;102225;1315;61061;-23
2021/12/07 05:43:56;;;;;;;10.80;6.40;;;;;;;-0.41;85.82;98167.48;102303;1316;61145;-23
2021/12/07 05:46:24;;;;;;;9.10;5.50;;;;;;;-0.57;86.92;98172.56;102258;1317;74376;-23
2021/12/07 05:48:53;;;;;;;7.80;5.30;;;;;;;-0.20;85.90;98164.02;101978;1317;76267;-23
2021/12/07 05:51:21;;;;;;;7.90;4.40;;;;;;;-0.07;84.59;98156.91;102237;1313;73449;-22
2021/12/07 05:53:49;;;;;;;3.90;2.80;;;;;;;-0.32;85.33;98165.70;102217;1317;61173;-22
2021/12/07 05:56:17;;;;;;;11.40;6.30;;;;;;;-0.35;85.87;98178.77;102163;1312;62159;-22
2021/12/07 05:58:46;;;;;;;10.60;5.70;;;;;;;-0.44;86.33;98179.23;102117;1313;75706;-22
2021/12/07 06:01:14;;;;;;;7.90;5.30;;;;;;;-0.32;85.87;98167.38;102167;1313;75985;-23
2021/12/07 06:03:42;;;;;;;9.60;6.40;;;;;;;-0.28;85.58;98154.38;102086;1312;72993;-23
2021/12/07 06:06:14;;;;;;;6.70;4.20;;;;;;;-0.22;85.34;98154.61;102253;1312;62605;-23
2021/12/07 06:08:43;;;;;;;5.50;2.90;;;;;;;-0.59;86.68;98157.16;102197;1317;61295;-22
2021/12/07 06:11:11;;;;;;;6.20;3.80;;;;;;;-0.66;87.37;98155.95;102235;1317;74452;-23
2021/12/07 06:13:39;;;;;;;6.10;3.50;;;;;;;-0.34;86.23;98165.61;102348;1312;75285;-23
2021/12/07 06:16:08;;;;;;;7.60;4.40;;;;;;;-0.03;85.06;98182.77;102165;1314;74485;-23
2021/12/07 06:18:37;;;;;;;9.40;5.70;;;;;;;0.06;84.39;98184.34;102166;1313;61169;-22
2021/12/07 06:21:06;;;;;;;8.70;5.40;;;;;;;-0.19;85.07;98171.48;102130;1315;61202;-22
2021/12/07 06:23:34;;;;;;;9.50;5.50;;;;;;;-0.20;85.20;98179.73;102074;1312;75651;-23
2021/12/07 06:26:04;;;;;;;11.70;4.30;;;;;;;0.26;84.05;98194.78;102056;1313;75178;-23
2021/12/07 06:28:32;;;;;;;8.70;5.80;;;;;;;0.20;83.54;98190.98;102122;1314;74413;-22
2021/12/07 06:31:01;;;;;;;5.90;3.60;;;;;;;-0.23;85.22;98183.29;101929;1314;61782;-23
2021/12/07 06:33:30;;;;;;;7.80;5.00;;;;;;;-0.33;85.76;98183.30;102252;1313;61113;-22
2021/12/07 06:36:01;;;;;;;8.00;5.20;;;;;;;-0.58;86.71;98188.27;102110;1313;76637;-23
2021/12/07 06:38:31;;;;;;;5.50;3.50;;;;;;;-0.54;86.88;98185.70;101932;1315;76068;-23
2021/12/07 06:41:01;;;;;;;6.50;4.60;;;;;;;-0.20;85.58;98184.35;102161;1314;73098;-22
2021/12/07 06:43:32;;;;;;;10.90;6.20;;;;;;;-0.01;84.77;98191.73;102071;1313;61193;-22
2021/12/07 06:46:01;;;;;;;11.30;6.90;;;;;;;-0.07;84.74;98195.96;102279;1317;62166;-23
2021/12/07 06:48:30;;;;;;;12.90;7.90;;;;;;;-0.20;85.27;98190.98;102065;1314;76547;-23
2021/12/07 06:50:59;;;;;;;35.30;18.50;;;;;;;-0.16;85.58;98185.50;102066;1313;76148;-22
2021/12/07 06:53:30;;;;;;;97.10;46.10;;;;;;;0.36;83.76;98190.86;101879;1314;72764;-23
2021/12/07 06:55:58;;;;;;;31.00;18.10;;;;;;;0.34;83.52;98191.45;102095;1313;61252;-22
2021/12/07 06:58:27;;;;;;;54.40;21.10;;;;;;;-0.06;84.33;98181.93;102098;1317;61085;-23
2021/12/07 07:00:55;;;;;;;34.60;11.90;;;;;;;-0.05;84.81;98187.52;102041;1316;72868;-23
2021/12/07 07:03:24;;;;;;;53.20;15.00;;;;;;;-0.37;85.72;98193.73;102060;1313;76061;-24
2021/12/07 07:05:53;;;;;;;44.50;11.10;;;;;;;-0.04;85.12;98193.10;102135;1312;73614;-23
2021/12/07 07:08:21;;;;;;;65.20;27.20;;;;;;;0.18;83.77;98192.77;102028;1312;61971;-22
2021/12/07 07:10:49;;;;;;;96.40;30.70;;;;;;;-0.27;85.14;98192.20;101923;1315;61870;-23
2021/12/07 07:13:17;;;;;;;98.70;30.40;;;;;;;-0.21;85.40;98194.94;102051;1315;75521;-22
2021/12/07 07:15:46;;;;;;;15.60;6.90;;;;;;;-0.35;85.97;98195.48;102083;1312;76059;-22
2021/12/07 07:18:17;;;;;;;144.10;95.80;;;;;;;-0.28;85.84;98194.31;102001;1319;73301;-22
2021/12/07 07:20:46;;;;;;;84.40;50.80;;;;;;;0.01;84.65;98202.22;101901;1314;61173;-23
2021/12/07 07:23:14;;;;;;;16.90;11.50;;;;;;;-0.41;85.51;98198.17;102083;1313;61189;-22
2021/12/07 07:25:43;;;;;;;40.40;24.70;;;;;;;-0.62;86.80;98193.94;102123;1312;75445;-22
2021/12/07 07:28:11;;;;;;;121.60;73.90;;;;;;;-0.72;87.49;98191.36;102117;1316;75983;-22
2021/12/07 07:30:40;;;;;;;169.30;121.00;;;;;;;-0.28;85.87;98187.80;102103;1313;73412;-23
2021/12/07 07:33:08;;;;;;;369.00;133.70;;;;;;;-0.18;84.86;98187.64;102026;1314;62005;-22
2021/12/07 07:35:37;;;;;;;48.80;38.50;;;;;;;-0.37;85.49;98188.10;102200;1312;61900;-23
2021/12/07 07:38:08;;;;;;;32.10;26.70;;;;;;;-0.46;86.09;98191.96;102144;1314;74654;-22
2021/12/07 07:40:37;;;;;;;10.40;7.60;;;;;;;-0.48;86.35;98183.70;102202;1313;75892;-23
2021/12/07 07:43:06;;;;;;;399.30;204.10;;;;;;;-0.22;85.52;98188.20;102277;1314;74754;-23
2021/12/07 07:45:39;;;;;;;22.20;14.00;;;;;;;-0.40;85.80;98193.20;102309;1313;61385;-23
2021/12/07 07:48:07;;;;;;;9.40;6.00;;;;;;;-0.52;86.45;98197.89;102269;1312;61081;-22
2021/12/07 07:50:35;;;;;;;5.60;3.20;;;;;;;-0.70;87.01;98201.65;102123;1312;75479;-22
2021/12/07 07:53:04;;;;;;;7.20;4.00;;;;;;;-0.72;87.70;98203.64;102109;1312;76186;-22
2021/12/07 07:55:35;;;;;;;9.30;5.30;;;;;;;-0.45;86.34;98205.38;102082;1313;73636;-22
2021/12/07 07:58:03;;;;;;;9.10;5.20;;;;;;;-0.33;85.81;98207.50;101867;1315;62336;-23
2021/12/07 08:00:32;;;;;;;8.40;6.80;;;;;;;-0.67;87.18;98210.36;102132;1313;61226;-23
2021/12/07 08:16:19;;;;;;;12.40;8.90;;;;;;;-0.57;86.72;98219.80;102254;1316;62656;-23
2021/12/07 08:18:55;;;;;;;15.60;11.40;;;;;;;-0.31;85.61;98226.52;102254;1319;61203;-23
2021/12/07 08:21:26;;;;;;;14.30;10.60;;;;;;;-0.21;85.09;98227.55;102024;1313;74581;-22
2021/12/07 08:23:57;;;;;;;10.50;6.10;;;;;;;-0.47;85.92;98224.39;101979;1312;75906;-23
2021/12/07 08:26:27;;;;;;;10.50;7.60;;;;;;;-0.75;87.24;98221.83;101727;1312;70548;-22
2021/12/07 08:28:55;;;;;;;8.20;4.80;;;;;;;-0.48;86.53;98225.97;102029;1313;61239;-23
2021/12/07 08:31:24;;;;;;;1580.80;504.70;;;;;;;-0.43;86.13;98228.47;101747;1316;61216;-23
2021/12/07 08:33:53;;;;;;;1354.40;511.80;;;;;;;-0.28;85.18;98227.88;101853;1312;75906;-23
2021/12/07 08:36:21;;;;;;;214.50;102.50;;;;;;;-0.60;86.07;98223.34;101998;1313;76091;-22
2021/12/07 08:38:50;;;;;;;221.00;127.50;;;;;;;-0.70;86.78;98221.77;102135;1313;73397;-22
2021/12/07 08:41:18;;;;;;;9.80;8.30;;;;;;;-0.30;85.96;98223.05;102147;1312;61060;-22
2021/12/07 08:43:54;;;;;;;12.60;9.20;;;;;;;-0.22;84.71;98224.86;101937;1314;61093;-22
2021/12/07 08:46:22;;;;;;;10.40;6.00;;;;;;;-0.29;85.07;98229.81;101878;1319;76274;-23
2021/12/07 08:48:51;;;;;;;9.80;7.40;;;;;;;-0.53;85.43;98226.90;102059;1313;75891;-23
2021/12/07 08:51:19;;;;;;;7.90;5.30;;;;;;;-0.60;85.96;98233.54;101977;1315;73753;-23
2021/12/07 08:54:04;;;;;;;6.40;4.60;;;;;;;-0.25;84.32;98236.95;102145;1315;61186;-22
2021/12/07 09:02:07;;;;;;;4.60;3.40;;;;;;;-0.38;84.74;98257.73;102295;1312;74645;-22
2021/12/07 09:04:36;;;;;;;13.60;9.10;;;;;;;-0.26;84.34;98261.04;102288;1312;74205;-23
2021/12/07 09:07:05;;;;;;;445.10;181.20;;;;;;;-0.18;83.82;98265.60;102281;1312;61193;-23
2021/12/07 09:09:33;;;;;;;23.10;13.00;;;;;;;-0.30;84.15;98270.63;102209;1314;61245;-22
2021/12/07 09:12:05;;;;;;;1289.80;521.40;;;;;;;-0.40;84.97;98263.95;102270;1314;75681;-22
2021/12/07 09:14:35;;;;;;;;;;;;;;;-0.31;84.70;98261.82;101884;1315;75941;-22
2021/12/07 09:17:05;;;;;;;240.60;86.60;;;;;;;-0.25;84.11;98264.43;102203;1313;74417;-23
2021/12/07 09:19:34;;;;;;;1507.60;624.20;;;;;;;-0.26;83.29;98269.77;102205;1314;61198;-22
2021/12/07 09:22:03;;;;;;;118.90;56.80;;;;;;;-0.18;83.49;98271.95;102308;1312;62210;-22
2021/12/07 09:24:51;;;;;;;20.30;13.70;;;;;;;-0.48;84.59;98273.41;101931;1312;74498;-22
2021/12/07 09:27:19;;;;;;;20.60;14.70;;;;;;;-0.83;85.59;98274.18;102287;1319;75271;-22
2021/12/07 09:29:47;;;;;;;5.20;4.60;;;;;;;-0.44;84.54;98274.75;102236;1312;74548;-24
2021/12/07 09:32:16;;;;;;;386.10;146.90;;;;;;;-0.18;83.33;98272.45;102254;1312;61193;-22
2021/12/07 09:34:44;;;;;;;15.90;8.50;;;;;;;-0.16;83.43;98273.04;102229;1313;61237;-24
2021/12/07 09:37:12;;;;;;;10.10;6.90;;;;;;;-0.10;82.99;98274.96;102113;1312;75716;-22
2021/12/07 09:39:40;;;;;;;9.60;7.00;;;;;;;-0.32;83.83;98273.64;102057;1313;75194;-23
2021/12/07 09:42:09;;;;;;;32.80;16.00;;;;;;;-0.25;84.07;98270.73;102277;1313;74201;-23
2021/12/07 09:44:37;;;;;;;35.40;17.70;;;;;;;-0.24;83.36;98264.02;102131;1312;61946;-22
2021/12/07 09:47:05;;;;;;;12.60;8.00;;;;;;;-0.27;83.27;98266.73;102030;1312;61232;-23
2021/12/07 09:49:34;;;;;;;12.90;8.80;;;;;;;-0.25;83.56;98267.98;102073;1312;74625;-22
2021/12/07 09:52:02;;;;;;;22.50;16.30;;;;;;;-0.51;84.75;98265.19;102070;1314;76049;-22
2021/12/07 09:54:31;;;;;;;13.80;10.10;;;;;;;-0.61;85.23;98263.77;102024;1313;74546;-23
2021/12/07 09:56:59;;;;;;;13.50;9.50;;;;;;;-0.37;84.48;98257.50;101676;1316;61144;-23
2021/12/07 09:59:29;;;;;;;33.80;24.80;;;;;;;-0.32;84.33;98254.18;102197;1313;62078;-23
2021/12/07 10:01:57;;;;;;;22.40;16.80;;;;;;;-0.58;85.38;98251.70;101871;1316;75433;-23
2021/12/07 10:04:27;;;;;;;17.70;12.90;;;;;;;-0.67;85.91;98251.45;102083;1312;75132;-23
2021/12/07 10:06:56;;;;;;;26.80;16.20;;;;;;;-0.49;85.25;98246.66;101617;1315;73520;-23
2021/12/07 10:09:25;;;;;;;655.50;217.20;;;;;;;-0.14;83.98;98247.17;102255;1312;61344;-23
2021/12/07 10:11:54;;;;;;;544.60;177.70;;;;;;;-0.46;84.81;98243.80;102190;1316;61161;-23
2021/12/07 10:14:22;;;;;;;246.00;125.20;;;;;;;-0.63;85.30;98241.73;102012;1312;75942;-23
2021/12/07 10:16:51;;;;;;;135.40;75.40;;;;;;;-0.70;85.89;98242.58;102041;1312;75126;-23
2021/12/07 10:19:27;;;;;;;708.60;355.10;;;;;;;-0.63;85.35;98241.73;102300;1312;72981;-23
2021/12/07 10:22:08;;;;;;;86.10;51.30;;;;;;;-0.39;84.55;98247.02;101729;1316;61710;-23
2021/12/07 10:24:47;;;;;;;161.10;101.80;;;;;;;-0.55;84.97;98243.53;101920;1313;61212;-23
2021/12/07 10:27:36;;;;;;;32.80;23.20;;;;;;;-0.71;85.67;98241.08;101841;1314;73963;-23
2021/12/07 10:30:10;;;;;;;12.00;8.10;;;;;;;-0.59;85.56;98245.94;101875;1313;76221;-23
2021/12/07 10:32:39;;;;;;;28.30;21.80;;;;;;;-0.16;84.17;98250.70;102135;1312;74272;-23
2021/12/07 10:35:31;;;;;;;44.40;37.10;;;;;;;-0.24;84.24;98250.91;102067;1313;61110;-23
2021/12/07 10:38:29;;;;;;;17.10;11.20;;;;;;;-0.45;84.87;98245.63;101734;1316;61237;-23
2021/12/07 10:41:02;;;;;;;16.90;12.80;;;;;;;-0.68;85.51;98239.21;102086;1312;75439;-23
2021/12/07 10:43:55;;;;;;;14.80;10.50;;;;;;;-0.54;84.96;98230.02;101899;1316;73397;-23
2021/12/07 10:46:26;;;;;;;12.40;8.40;;;;;;;-0.51;84.55;98231.39;102120;1315;74265;-23
2021/12/07 10:49:20;;;;;;;44.90;29.00;;;;;;;-0.55;85.01;98236.91;102188;1314;61163;-23
2021/12/07 10:52:15;;;;;;;11.80;8.90;;;;;;;-0.80;86.28;98238.12;102121;1313;61211;-23
2021/12/07 10:55:13;;;;;;;11.20;8.00;;;;;;;-0.54;85.46;98232.60;101957;1314;401589;-25
2021/12/07 10:57:45;;;;;;;51.50;33.40;;;;;;;-0.54;85.15;98222.52;102278;1312;76517;-23
2021/12/07 11:00:37;;;;;;;688.70;221.20;;;;;;;-0.50;85.25;98224.19;102185;1313;73591;-23
2021/12/07 11:03:10;;;;;;;266.50;107.00;;;;;;;-0.84;86.33;98228.21;102181;1316;61135;-24
2021/12/07 11:05:48;;;;;;;306.00;127.30;;;;;;;-0.83;86.63;98229.38;101844;1319;61085;-23
2021/12/07 11:08:18;;;;;;;337.40;164.30;;;;;;;-0.42;85.07;98233.39;101955;1315;75825;-23
2021/12/07 11:10:50;;;;;;;21.40;16.70;;;;;;;-0.61;85.16;98232.59;102160;1315;75031;-23
2021/12/07 11:13:23;;;;;;;45.20;40.30;;;;;;;-0.89;86.33;98230.67;102254;1314;74595;-23
2021/12/07 11:15:54;;;;;;;12.30;8.50;;;;;;;-0.93;86.94;98234.80;102090;1313;62899;-23
2021/12/07 11:18:31;;;;;;;13.80;10.10;;;;;;;-0.67;85.88;98240.03;101848;1313;61122;-23
2021/12/07 11:21:04;;;;;;;12.70;8.80;;;;;;;-0.57;85.31;98239.38;102038;1313;75665;-25
2021/12/07 11:23:35;;;;;;;17.60;12.40;;;;;;;-0.78;85.85;98229.29;101766;1315;75767;-23
